createdAt,value
2023-09-27T00:01:25.931Z,14.20
2023-09-27T00:07:28.134Z,14.10
2023-09-27T00:13:30.961Z,14.10
2023-09-27T00:19:33.021Z,13.90
2023-09-27T00:25:34.963Z,13.80
2023-09-27T00:31:36.916Z,13.60
2023-09-27T00:37:39.409Z,13.50
2023-09-27T00:43:41.419Z,13.50
2023-09-27T00:49:43.722Z,13.50
2023-09-27T00:55:45.820Z,13.40
2023-09-27T01:01:48.219Z,13.40
2023-09-27T01:07:50.339Z,13.40
2023-09-27T01:13:52.358Z,13.40
2023-09-27T01:19:54.408Z,13.50
2023-09-27T01:26:01.001Z,13.40
2023-09-27T01:32:03.629Z,13.20
2023-09-27T01:38:08.122Z,13.00
2023-09-27T01:44:10.163Z,13.00
2023-09-27T01:50:13.784Z,13.00
2023-09-27T01:56:16.006Z,12.90
2023-09-27T02:02:18.160Z,12.90
2023-09-27T02:08:20.247Z,12.80
2023-09-27T02:14:22.305Z,12.80
2023-09-27T02:20:25.764Z,12.70
2023-09-27T02:26:27.930Z,12.60
2023-09-27T02:32:30.544Z,12.60
2023-09-27T02:38:32.590Z,12.70
2023-09-27T02:44:34.592Z,12.70
2023-09-27T02:50:36.648Z,12.50
2023-09-27T02:56:38.626Z,12.40
2023-09-27T03:02:40.803Z,12.30
2023-09-27T03:08:44.276Z,12.30
2023-09-27T03:14:46.244Z,12.10
2023-09-27T03:20:48.191Z,11.90
2023-09-27T03:26:50.160Z,11.90
2023-09-27T03:32:52.163Z,11.90
2023-09-27T03:38:55.512Z,11.90
2023-09-27T03:44:57.484Z,11.90
2023-09-27T03:50:59.838Z,11.90
2023-09-27T03:57:01.775Z,12.00
2023-09-27T04:03:04.111Z,12.00
2023-09-27T04:09:07.294Z,12.00
2023-09-27T04:15:10.476Z,11.90
2023-09-27T04:21:12.638Z,12.00
2023-09-27T04:27:14.783Z,12.20
2023-09-27T04:33:16.754Z,12.30
2023-09-27T04:39:19.895Z,12.60
2023-09-27T04:45:22.054Z,12.70
2023-09-27T04:51:23.979Z,12.70
2023-09-27T04:57:26.145Z,12.60
2023-09-27T05:03:28.163Z,12.60
2023-09-27T05:09:30.374Z,12.60
2023-09-27T05:15:35.358Z,12.50
2023-09-27T05:21:37.740Z,12.10
2023-09-27T05:27:39.966Z,11.90
2023-09-27T05:33:43.024Z,11.70
2023-09-27T05:39:45.880Z,11.70
2023-09-27T05:45:48.069Z,11.80
2023-09-27T05:51:50.016Z,11.80
2023-09-27T05:57:52.099Z,11.80
2023-09-27T06:03:54.144Z,11.80
2023-09-27T06:09:56.670Z,11.90
2023-09-27T06:16:01.855Z,12.00
2023-09-27T06:22:07.547Z,11.80
2023-09-27T06:28:09.472Z,11.80
2023-09-27T06:34:11.994Z,12.10
2023-09-27T06:40:18.220Z,14.90
2023-09-27T06:46:20.800Z,18.40
2023-09-27T06:52:23.710Z,20.80
2023-09-27T06:58:26.356Z,22.20
2023-09-27T07:04:28.435Z,23.80
2023-09-27T07:10:30.527Z,23.80
2023-09-27T07:16:34.470Z,21.20
2023-09-27T07:22:39.984Z,20.20
2023-09-27T07:28:42.039Z,20.80
2023-09-27T07:34:43.990Z,21.20
2023-09-27T07:40:49.765Z,20.40
2023-09-27T07:46:52.564Z,19.40
2023-09-27T07:52:56.151Z,18.70
2023-09-27T07:58:59.856Z,18.80
2023-09-27T08:05:10.920Z,19.40
2023-09-27T08:11:13.030Z,20.40
2023-09-27T08:17:15.149Z,21.50
2023-09-27T08:23:17.133Z,22.90
2023-09-27T08:29:21.703Z,24.80
2023-09-27T08:35:23.820Z,26.80
2023-09-27T08:41:25.958Z,28.60
2023-09-27T08:47:30.489Z,30.10
2023-09-27T08:53:39.928Z,29.90
2023-09-27T08:59:42.166Z,30.90
2023-09-27T09:05:45.755Z,32.60
2023-09-27T09:11:56.006Z,33.40
2023-09-27T09:18:00.952Z,34.60
2023-09-27T09:24:21.569Z,34.30
2023-09-27T09:30:39.731Z,33.40
2023-09-27T09:36:41.707Z,32.50
2023-09-27T09:42:44.647Z,33.30
2023-09-27T09:48:46.810Z,34.50
2023-09-27T09:54:57.103Z,35.10
2023-09-27T10:01:04.855Z,34.30
2023-09-27T10:07:07.469Z,35.30
2023-09-27T10:13:12.111Z,36.20
2023-09-27T10:19:29.293Z,36.10
2023-09-27T10:25:35.589Z,36.10
2023-09-27T10:31:59.038Z,35.80
2023-09-27T10:38:05.570Z,36.60
2023-09-27T10:44:07.649Z,35.40
2023-09-27T10:50:11.836Z,34.40
2023-09-27T10:56:15.764Z,33.60
2023-09-27T11:02:30.733Z,32.90
2023-09-27T11:08:32.809Z,33.60
2023-09-27T11:14:35.504Z,34.60
2023-09-27T11:20:38.860Z,34.50
2023-09-27T11:26:45.101Z,33.80
2023-09-27T11:32:53.361Z,33.30
2023-09-27T11:38:55.473Z,34.60
2023-09-27T11:45:09.630Z,35.70
2023-09-27T11:51:12.934Z,36.00
2023-09-27T11:57:14.912Z,34.90
2023-09-27T12:03:17.045Z,33.40
2023-09-27T12:09:19.205Z,32.50
2023-09-27T12:15:21.218Z,29.80
2023-09-27T12:21:25.085Z,28.40
2023-09-27T12:27:27.125Z,28.40
2023-09-27T12:33:29.539Z,28.40
2023-09-27T12:39:31.693Z,29.60
2023-09-27T12:45:33.803Z,30.50
2023-09-27T12:51:48.275Z,31.10
2023-09-27T12:57:51.571Z,31.30
2023-09-27T13:03:53.949Z,30.80
2023-09-27T13:09:56.123Z,31.10
2023-09-27T13:15:58.249Z,31.90
2023-09-27T13:22:00.263Z,32.70
2023-09-27T13:28:03.014Z,32.30
2023-09-27T13:34:11.197Z,31.70
2023-09-27T13:40:14.945Z,31.00
2023-09-27T13:46:16.941Z,32.10
2023-09-27T13:52:18.948Z,34.30
2023-09-27T13:58:20.896Z,34.70
2023-09-27T14:04:22.876Z,34.70
2023-09-27T14:10:25.115Z,35.80
2023-09-27T14:16:28.809Z,36.40
2023-09-27T14:22:31.005Z,36.70
2023-09-27T14:28:34.267Z,36.40
2023-09-27T14:40:42.753Z,35.30
2023-09-27T14:46:44.937Z,36.40
2023-09-27T14:52:46.976Z,37.30
2023-09-27T14:58:48.984Z,36.90
2023-09-27T15:04:51.036Z,37.20
2023-09-27T15:10:53.299Z,37.50
2023-09-27T15:16:55.349Z,36.70
2023-09-27T15:22:57.327Z,34.00
2023-09-27T15:29:01.279Z,31.70
2023-09-27T15:35:03.623Z,30.30
2023-09-27T15:41:05.643Z,28.90
2023-09-27T15:47:10.866Z,27.80
2023-09-27T15:53:13.051Z,26.90
2023-09-27T15:59:15.910Z,26.20
2023-09-27T16:05:18.010Z,25.20
2023-09-27T16:11:31.002Z,24.60
2023-09-27T16:17:33.609Z,24.30
2023-09-27T16:23:36.009Z,23.80
2023-09-27T16:29:38.001Z,23.40
2023-09-27T16:35:41.341Z,23.20
2023-09-27T16:41:43.808Z,23.10
2023-09-27T16:47:45.802Z,23.30
2023-09-27T16:53:48.274Z,23.30
2023-09-27T16:59:50.267Z,23.00
2023-09-27T17:05:53.153Z,22.70
2023-09-27T17:11:55.150Z,22.30
2023-09-27T17:17:57.642Z,22.00
2023-09-27T17:23:59.620Z,21.80
2023-09-27T17:30:02.936Z,21.60
2023-09-27T17:36:05.579Z,21.40
2023-09-27T17:42:07.592Z,21.20
2023-09-27T17:48:09.627Z,20.90
2023-09-27T17:54:12.452Z,20.70
2023-09-27T18:00:15.433Z,20.40
2023-09-27T18:06:18.050Z,20.10
2023-09-27T18:12:20.033Z,19.70
2023-09-27T18:18:22.226Z,19.50
2023-09-27T18:24:26.066Z,19.30
2023-09-27T18:30:28.010Z,19.10
2023-09-27T18:36:31.408Z,19.00
2023-09-27T18:42:33.347Z,18.90
2023-09-27T18:48:35.315Z,18.90
2023-09-27T18:54:37.476Z,19.00
2023-09-27T19:00:39.840Z,19.00
2023-09-27T19:06:42.149Z,19.10
2023-09-27T19:12:44.128Z,19.00
2023-09-27T19:18:46.143Z,19.00
2023-09-27T19:24:48.640Z,18.90
2023-09-27T19:30:50.912Z,18.90
2023-09-27T19:36:52.948Z,18.90
2023-09-27T19:42:54.946Z,18.80
2023-09-27T19:48:56.950Z,18.80
2023-09-27T19:54:59.151Z,18.80
2023-09-27T20:01:01.165Z,18.80
2023-09-27T20:07:03.178Z,18.70
2023-09-27T20:13:05.161Z,18.70
2023-09-27T20:19:07.206Z,18.70
2023-09-27T20:25:11.567Z,18.70
2023-09-27T20:31:17.073Z,18.60
2023-09-27T20:37:19.114Z,18.50
2023-09-27T20:43:21.096Z,18.40
2023-09-27T20:49:23.079Z,18.30
2023-09-27T20:55:25.091Z,18.30
2023-09-27T21:01:37.516Z,18.30
2023-09-27T21:07:39.681Z,18.10
2023-09-27T21:13:41.687Z,18.00
2023-09-27T21:19:43.913Z,17.80
2023-09-27T21:25:46.229Z,17.70
2023-09-27T21:31:48.385Z,17.40
2023-09-27T21:37:50.443Z,17.30
2023-09-27T21:43:53.103Z,17.10
2023-09-27T21:49:55.410Z,17.10
2023-09-27T21:55:57.431Z,17.00
2023-09-27T22:01:59.401Z,16.90
2023-09-27T22:08:02.081Z,16.70
2023-09-27T22:14:07.207Z,16.50
2023-09-27T22:20:12.688Z,16.40
2023-09-27T22:26:19.259Z,16.30
2023-09-27T22:32:21.269Z,16.30
2023-09-27T22:38:24.875Z,16.30
2023-09-27T22:44:26.872Z,16.20
2023-09-27T22:50:45.284Z,16.20
2023-09-27T22:56:49.258Z,16.30
2023-09-27T23:02:59.064Z,16.10
2023-09-27T23:09:01.448Z,15.80
2023-09-27T23:15:13.631Z,15.70
2023-09-27T23:21:20.772Z,15.70
2023-09-27T23:27:27.852Z,15.70
2023-09-27T23:33:29.788Z,15.70
2023-09-27T23:39:34.477Z,15.70
2023-09-27T23:45:38.650Z,15.60
2023-09-27T23:51:44.109Z,15.50
2023-09-27T23:57:48.442Z,15.60
